Terminal Aerodrome Forecast
Issued by NWS Topeka, KS

Home | Current Version | Previous Version | Graphics & Text | Print | Product List | Glossary On
Versions: 1 2 3 4 5 6 7 8 9 10 11 12 13 14 15 16 17
000
FTUS43 KTOP 230500
TAFTOP
TAF
KTOP 230522Z 2306/2406 18011KT P6SM OVC013
     FM230900 17007KT 5SM -DZ BR OVC007
     FM231700 28010KT 3SM -DZ BR VCTS BKN007 OVC015CB
     FM232100 32019G27KT 5SM -RASN BR OVC020=

USA.gov is the U.S. government's official web portal to all federal, state and local government web resources and services.